Time;durP1;ratioP1;P1;durP2;ratioP2;P2;SDS_P1;SDS_P2;PMS_P1;PMS_P2;Temp;Humidity;BMP_temperature;BMP_pressure;BME280_temperature;BME280_humidity;BME280_pressure;Samples;Min_cycle;Max_cycle;Signal;HPM_P1;HPM_P2
2022/12/29 00:01:31;;;;;;;1.15;0.90;;;;;;;8.42;nan;99770.50;10580576;28;20376;-79
2022/12/29 00:06:32;;;;;;;0.60;0.45;;;;;;;8.41;nan;99778.31;10552385;28;20052;-79
2022/12/29 00:11:34;;;;;;;1.90;1.30;;;;;;;8.44;nan;99767.94;10560343;28;20376;-79
2022/12/29 00:16:36;;;;;;;1.88;1.17;;;;;;;8.43;nan;99771.38;10578387;28;20154;-78
2022/12/29 00:53:51;;;;;;;1.92;1.13;;;;;;;8.36;nan;99738.25;10560591;28;20398;-80
2022/12/29 00:58:53;;;;;;;1.80;1.17;;;;;;;8.38;nan;99723.50;10577948;28;20044;-79
2022/12/29 01:03:54;;;;;;;1.65;0.93;;;;;;;8.38;nan;99710.47;10587546;27;20044;-79
2022/12/29 01:14:24;;;;;;;1.15;0.85;;;;;;;8.51;nan;99708.84;10577276;28;20104;-79
2022/12/29 01:19:26;;;;;;;1.45;1.05;;;;;;;8.59;nan;99707.19;10556373;28;20058;-81
2022/12/29 01:24:30;;;;;;;1.23;1.10;;;;;;;8.66;nan;99696.81;10540003;27;20102;-79
2022/12/29 01:29:32;;;;;;;2.17;1.55;;;;;;;8.71;nan;99693.34;10556382;28;20051;-79
2022/12/29 01:34:33;;;;;;;1.80;1.35;;;;;;;8.73;nan;99702.06;10556804;28;20047;-79
2022/12/29 01:39:37;;;;;;;1.45;1.15;;;;;;;8.82;nan;99686.47;10577716;28;20040;-80
2022/12/29 01:44:51;;;;;;;1.45;1.00;;;;;;;8.82;nan;99679.50;10547079;27;20081;-79
2022/12/29 01:49:57;;;;;;;3.78;1.45;;;;;;;8.86;nan;99667.38;10572620;27;20422;-79
2022/12/29 01:55:01;;;;;;;1.70;1.33;;;;;;;8.95;nan;99664.81;10563172;27;20047;-79
2022/12/29 02:00:13;;;;;;;0.30;0.30;;;;;;;9.00;nan;99652.63;10562903;27;20096;-78
2022/12/29 02:05:27;;;;;;;1.38;1.02;;;;;;;8.99;nan;99653.53;10548780;27;20162;-79
2022/12/29 02:10:32;;;;;;;0.55;0.40;;;;;;;8.96;nan;99645.66;10562168;27;20055;-80
2022/12/29 02:15:55;;;;;;;0.52;0.47;;;;;;;8.94;nan;99642.16;10567729;27;20460;-79
2022/12/29 02:21:26;;;;;;;0.90;0.73;;;;;;;8.98;nan;99646.53;10581855;27;20698;-79
2022/12/29 02:26:43;;;;;;;0.98;0.80;;;;;;;8.97;nan;99644.78;10542214;28;20568;-79
2022/12/29 02:32:03;;;;;;;1.83;0.90;;;;;;;9.05;nan;99625.69;10566713;28;20032;-79
2022/12/29 02:37:10;;;;;;;1.70;1.00;;;;;;;9.06;nan;99609.16;10552741;28;20036;-78
2022/12/29 02:42:41;;;;;;;1.15;0.90;;;;;;;9.10;nan;99616.16;10573017;28;20032;-78
2022/12/29 02:48:05;;;;;;;1.00;0.80;;;;;;;9.12;nan;99612.66;10552754;28;20035;-79
2022/12/29 02:53:10;;;;;;;1.15;0.60;;;;;;;9.14;nan;99604.81;10554490;28;20047;-79
2022/12/29 02:58:21;;;;;;;0.65;0.47;;;;;;;9.19;nan;99619.66;10570810;28;20040;-78
2022/12/29 03:03:51;;;;;;;0.65;0.50;;;;;;;9.17;nan;99603.13;10553004;28;20054;-79
2022/12/29 03:09:25;;;;;;;0.70;0.70;;;;;;;9.20;nan;99590.06;10547019;28;20056;-78
2022/12/29 03:19:59;;;;;;;0.73;0.50;;;;;;;9.26;nan;99577.88;10550278;28;19997;-78
2022/12/29 03:25:28;;;;;;;;;;;;;;;9.30;nan;99567.44;10552092;28;20067;-79
2022/12/29 03:30:34;;;;;;;0.63;0.63;;;;;;;9.31;nan;99573.56;10574839;28;19923;-79
2022/12/29 03:35:38;;;;;;;1.38;0.73;;;;;;;9.20;nan;99563.94;10553505;28;20113;-79
2022/12/29 03:40:48;;;;;;;0.65;0.65;;;;;;;9.08;nan;99552.56;10573547;28;20046;-79
2022/12/29 03:45:50;;;;;;;0.30;0.30;;;;;;;9.01;nan;99556.91;10600276;27;20040;-81
2022/12/29 03:50:52;;;;;;;0.80;0.55;;;;;;;8.94;nan;99553.38;10582984;27;20103;-80
2022/12/29 03:55:54;;;;;;;0.95;0.50;;;;;;;8.88;nan;99536.84;10548283;28;20115;-81
2022/12/29 04:00:57;;;;;;;0.68;0.52;;;;;;;8.87;nan;99542.91;10584826;27;20035;-81
2022/12/29 04:05:58;;;;;;;0.63;0.40;;;;;;;8.88;nan;99545.53;10585709;27;20043;-79
2022/12/29 04:11:01;;;;;;;0.40;0.40;;;;;;;8.97;nan;99540.34;10588692;27;20081;-79
2022/12/29 04:16:04;;;;;;;1.15;0.90;;;;;;;8.98;nan;99547.31;10580083;27;20051;-80
2022/12/29 04:21:06;;;;;;;0.35;0.32;;;;;;;9.02;nan;99554.31;10554754;27;20043;-78
2022/12/29 04:26:12;;;;;;;2.17;0.55;;;;;;;9.09;nan;99549.09;10583717;27;20043;-78
2022/12/29 04:31:31;;;;;;;0.82;0.80;;;;;;;9.12;nan;99554.34;10574601;27;20053;-80
2022/12/29 04:36:33;;;;;;;0.20;0.20;;;;;;;9.12;nan;99560.41;10559797;27;20032;-79
2022/12/29 04:41:35;;;;;;;0.40;0.28;;;;;;;9.22;nan;99566.56;10563013;27;20067;-79
2022/12/29 04:46:38;;;;;;;0.20;0.20;;;;;;;9.28;nan;99553.50;10558571;28;20130;-78
2022/12/29 04:51:57;;;;;;;2.30;0.30;;;;;;;9.35;nan;99555.28;10560601;27;20027;-78
2022/12/29 04:56:59;;;;;;;0.88;0.50;;;;;;;9.38;nan;99563.13;10561440;27;20105;-79
2022/12/29 05:02:02;;;;;;;0.10;0.10;;;;;;;9.45;nan;99552.69;10537646;28;20066;-79
2022/12/29 05:07:06;;;;;;;0.20;0.20;;;;;;;9.44;nan;99556.16;10559166;27;20036;-78
2022/12/29 05:12:08;;;;;;;0.30;0.30;;;;;;;9.41;nan;99563.97;10559221;28;20036;-78
2022/12/29 05:17:14;;;;;;;0.15;0.15;;;;;;;9.42;nan;99568.34;10542498;27;20130;-78
2022/12/29 05:22:15;;;;;;;0.20;0.20;;;;;;;9.40;nan;99563.13;10543591;28;20032;-78
2022/12/29 05:27:18;;;;;;;0.52;0.30;;;;;;;9.37;nan;99565.72;10550896;27;20123;-77
2022/12/29 05:32:36;;;;;;;0.30;0.30;;;;;;;9.29;nan;99568.34;10564882;27;20043;-77
2022/12/29 05:37:37;;;;;;;0.20;0.20;;;;;;;9.17;nan;99573.50;10528692;28;20644;-78
2022/12/29 05:42:40;;;;;;;0.10;0.10;;;;;;;9.10;nan;99579.59;10535945;28;20056;-78
2022/12/29 05:47:51;;;;;;;0.10;0.10;;;;;;;9.05;nan;99582.16;10547025;28;20051;-78
2022/12/29 05:53:04;;;;;;;0.13;0.13;;;;;;;9.06;nan;99560.41;10546746;28;20131;-78
2022/12/29 05:58:06;;;;;;;0.17;0.15;;;;;;;8.99;nan;99563.84;10540408;28;20293;-77
2022/12/29 06:03:08;;;;;;;0.10;0.10;;;;;;;9.01;nan;99568.22;10561597;27;20074;-77
2022/12/29 06:08:10;;;;;;;0.15;0.15;;;;;;;9.00;nan;99561.25;10550753;28;20035;-78
2022/12/29 06:13:12;;;;;;;1.45;0.20;;;;;;;8.97;nan;99555.16;10567308;27;20443;-78
2022/12/29 06:18:17;;;;;;;0.10;0.10;;;;;;;8.97;nan;99566.47;10547145;28;20051;-78
2022/12/29 06:23:21;;;;;;;3.22;0.20;;;;;;;9.08;nan;99563.03;10565843;28;20047;-78
2022/12/29 06:28:23;;;;;;;0.63;0.43;;;;;;;9.08;nan;99556.03;10554048;28;20043;-77
2022/12/29 06:33:26;;;;;;;0.13;0.13;;;;;;;9.11;nan;99545.66;10545943;28;20040;-77
2022/12/29 06:38:28;;;;;;;0.40;0.30;;;;;;;9.16;nan;99537.81;10545596;28;20062;-78
2022/12/29 06:43:32;;;;;;;0.50;0.17;;;;;;;9.08;nan;99563.88;10560027;28;20292;-78
2022/12/29 06:48:37;;;;;;;0.40;0.40;;;;;;;9.05;nan;99578.69;10553149;28;20043;-78
2022/12/29 06:53:39;;;;;;;1.85;0.75;;;;;;;9.06;nan;99580.44;10562935;28;20061;-77
2022/12/29 06:58:41;;;;;;;0.43;0.20;;;;;;;8.99;nan;99577.78;10552793;28;20071;-79
2022/12/29 07:03:43;;;;;;;1.45;0.60;;;;;;;9.03;nan;99589.97;10579444;28;20112;-78
2022/12/29 07:08:45;;;;;;;0.30;0.20;;;;;;;8.97;nan;99591.69;10580602;28;20084;-79
2022/12/29 07:13:46;;;;;;;0.20;0.20;;;;;;;8.92;nan;99591.69;10559258;27;20081;-79
2022/12/29 07:18:48;;;;;;;0.30;0.20;;;;;;;8.93;nan;99603.88;10590166;27;20085;-79
2022/12/29 07:23:49;;;;;;;1.05;0.38;;;;;;;8.97;nan;99617.81;10590603;27;20046;-80
2022/12/29 07:28:51;;;;;;;0.38;0.30;;;;;;;9.00;nan;99616.06;10592255;27;20058;-79
2022/12/29 07:33:53;;;;;;;0.20;0.20;;;;;;;9.12;nan;99617.00;10544243;27;20491;-79
2022/12/29 07:38:55;;;;;;;0.10;0.10;;;;;;;9.06;nan;99627.44;10578831;27;20495;-78
2022/12/29 07:43:57;;;;;;;0.22;0.20;;;;;;;9.05;nan;99625.69;10553148;28;20043;-77
2022/12/29 07:49:09;;;;;;;0.47;0.20;;;;;;;9.15;nan;99637.91;10568228;27;20035;-78
2022/12/29 07:54:12;;;;;;;0.43;0.30;;;;;;;9.14;nan;99636.16;10538223;28;20039;-78
2022/12/29 07:59:14;;;;;;;0.73;0.25;;;;;;;9.01;nan;99638.72;10593971;27;20070;-78
2022/12/29 08:04:15;;;;;;;0.10;0.10;;;;;;;8.97;nan;99650.00;10581709;27;20128;-79
2022/12/29 08:09:17;;;;;;;0.30;0.30;;;;;;;9.06;nan;99658.78;10559137;27;20047;-77
2022/12/29 08:14:23;;;;;;;0.10;0.10;;;;;;;9.04;nan;99643.09;10556794;27;20055;-79
2022/12/29 08:19:25;;;;;;;2.83;0.68;;;;;;;9.06;nan;99648.31;10556763;27;20043;-79
2022/12/29 08:24:27;;;;;;;0.10;0.10;;;;;;;9.09;nan;99643.13;10552519;28;20142;-79
2022/12/29 08:29:29;;;;;;;0.30;0.28;;;;;;;9.02;nan;99666.59;10548636;27;20077;-79
2022/12/29 08:34:31;;;;;;;4.03;0.30;;;;;;;9.00;nan;99680.50;10532861;28;20042;-80
2022/12/29 08:39:34;;;;;;;2.55;0.65;;;;;;;8.96;nan;99684.84;10571841;27;20039;-80
2022/12/29 08:44:35;;;;;;;3.58;0.70;;;;;;;8.98;nan;99683.09;10573315;28;20040;-78
2022/12/29 08:49:37;;;;;;;0.25;0.17;;;;;;;8.94;nan;99688.28;10555300;27;20039;-79
2022/12/29 08:54:39;;;;;;;0.95;0.65;;;;;;;8.89;nan;99693.50;10567478;27;20039;-79
2022/12/29 08:59:41;;;;;;;0.47;0.45;;;;;;;8.77;nan;99696.88;10569336;28;20044;-80
2022/12/29 09:04:44;;;;;;;1.38;0.35;;;;;;;8.75;nan;99700.34;10548940;27;20077;-78
2022/12/29 09:09:46;;;;;;;0.20;0.20;;;;;;;8.72;nan;99708.16;10563400;27;20084;-79
2022/12/29 09:14:48;;;;;;;0.82;0.20;;;;;;;8.66;nan;99707.25;10551065;28;20043;-79
2022/12/29 09:19:50;;;;;;;0.60;0.50;;;;;;;8.64;nan;99706.34;10588474;27;20042;-79
2022/12/29 09:24:52;;;;;;;1.65;0.47;;;;;;;8.72;nan;99697.72;10567194;27;20071;-82
2022/12/29 09:29:54;;;;;;;3.25;0.50;;;;;;;8.89;nan;99706.53;10574146;27;20043;-81
2022/12/29 09:34:55;;;;;;;2.95;0.50;;;;;;;9.00;nan;99714.44;10569751;27;20057;-78
2022/12/29 09:39:57;;;;;;;0.20;0.20;;;;;;;8.98;nan;99709.19;10577709;27;20392;-80
2022/12/29 09:45:22;;;;;;;0.38;0.38;;;;;;;8.96;nan;99700.50;10570390;28;20090;-81
2022/12/29 09:50:38;;;;;;;0.17;0.17;;;;;;;8.91;nan;99704.81;10572751;27;20490;-79
2022/12/29 09:55:44;;;;;;;1.98;0.52;;;;;;;8.82;nan;99708.22;10572775;28;20394;-79
2022/12/29 10:00:52;;;;;;;0.30;0.30;;;;;;;8.80;nan;99706.47;10568981;28;20407;-80
2022/12/29 10:06:13;;;;;;;;;;;;;;;8.77;nan;99711.69;10550593;28;20343;-80
2022/12/29 10:11:34;;;;;;;0.60;0.50;;;;;;;8.91;nan;99707.41;10579425;27;20945;-81
2022/12/29 10:16:54;;;;;;;0.28;0.17;;;;;;;8.99;nan;99716.19;10556284;27;20043;-79
2022/12/29 10:22:15;;;;;;;3.53;0.50;;;;;;;8.91;nan;99715.25;10544685;28;20035;-80
2022/12/29 10:27:18;;;;;;;0.10;0.10;;;;;;;8.98;nan;99719.66;10586813;27;20040;-79
2022/12/29 10:32:32;;;;;;;6.78;0.65;;;;;;;8.96;nan;99729.22;10574378;27;20650;-80
2022/12/29 10:38:00;;;;;;;0.10;0.10;;;;;;;9.08;nan;99727.53;10547295;28;20134;-80
2022/12/29 10:43:17;;;;;;;0.68;0.47;;;;;;;8.98;nan;99740.53;10557210;28;20125;-80
2022/12/29 10:48:27;;;;;;;0.88;0.20;;;;;;;8.76;nan;99731.66;10572985;27;20047;-80
2022/12/29 10:54:03;;;;;;;0.95;0.70;;;;;;;8.60;nan;99730.69;10591539;27;20051;-80
2022/12/29 10:59:23;;;;;;;1.27;0.45;;;;;;;8.68;nan;99720.31;10573831;27;20526;-80
2022/12/29 11:04:46;;;;;;;2.25;0.80;;;;;;;8.78;nan;99722.13;10564889;28;20485;-80
2022/12/29 11:09:49;;;;;;;0.98;0.45;;;;;;;8.90;nan;99723.94;10577594;27;20243;-80
2022/12/29 11:15:07;;;;;;;0.57;0.47;;;;;;;9.01;nan;99714.44;10568670;27;20039;-80
2022/12/29 11:20:37;;;;;;;1.48;0.52;;;;;;;9.15;nan;99708.44;10591474;27;20683;-79
2022/12/29 11:25:39;;;;;;;2.27;0.93;;;;;;;9.15;nan;99727.56;10602346;27;20067;-80
2022/12/29 11:30:41;;;;;;;0.47;0.25;;;;;;;9.22;nan;99718.06;10584459;27;20491;-79
2022/12/29 11:35:44;;;;;;;2.33;0.85;;;;;;;9.31;nan;99732.91;10569399;27;20031;-80
2022/12/29 11:40:46;;;;;;;0.32;0.22;;;;;;;9.28;nan;99723.31;10585178;27;20126;-81
2022/12/29 11:45:47;;;;;;;3.90;0.38;;;;;;;9.30;nan;99737.25;10596064;27;20039;-80
2022/12/29 11:50:55;;;;;;;1.05;0.40;;;;;;;9.28;nan;99741.59;10565147;27;20042;-80
2022/12/29 11:56:02;;;;;;;1.70;0.30;;;;;;;9.31;nan;99746.84;10579820;27;20028;-80
2022/12/29 12:01:09;;;;;;;0.38;0.30;;;;;;;9.32;nan;99745.09;10584480;27;20039;-82
2022/12/29 12:06:18;;;;;;;0.20;0.20;;;;;;;9.33;nan;99750.31;10580599;27;20134;-81
2022/12/29 12:11:26;;;;;;;0.33;0.17;;;;;;;9.30;nan;99758.13;10566272;28;20048;-81
2022/12/29 12:16:39;;;;;;;0.30;0.30;;;;;;;9.25;nan;99762.47;10548179;28;20040;-80
2022/12/29 12:21:46;;;;;;;0.30;0.30;;;;;;;9.20;nan;99772.00;10560289;28;20107;-81
2022/12/29 12:26:51;;;;;;;1.38;0.52;;;;;;;8.99;nan;99797.13;10577026;27;20036;-80
2022/12/29 12:32:01;;;;;;;0.88;0.40;;;;;;;8.83;nan;99808.31;10575108;27;20034;-80
2022/12/29 12:37:22;;;;;;;0.75;0.60;;;;;;;8.75;nan;99809.97;10540866;27;20070;-80
2022/12/29 12:43:06;;;;;;;3.33;0.47;;;;;;;8.67;nan;99826.41;10576063;28;20166;-81
2022/12/29 12:48:29;;;;;;;0.22;0.22;;;;;;;8.62;nan;99838.56;10589683;27;20054;-81
2022/12/29 12:53:43;;;;;;;0.15;0.15;;;;;;;8.55;nan;99852.41;10564015;27;20455;-81
2022/12/29 12:59:15;;;;;;;0.38;0.38;;;;;;;8.56;nan;99855.91;10611593;27;20067;-81
2022/12/29 13:04:58;;;;;;;0.47;0.30;;;;;;;8.64;nan;99870.75;10581526;28;20051;-81
2022/12/29 13:10:17;;;;;;;0.00;0.00;;;;;;;8.81;nan;99885.72;10521517;27;20040;-82
2022/12/29 13:15:33;;;;;;;3.42;0.22;;;;;;;8.84;nan;99893.56;10598356;27;20039;-79
2022/12/29 13:20:55;;;;;;;0.43;0.30;;;;;;;8.76;nan;99906.56;10594686;27;20469;-81
2022/12/29 13:26:16;;;;;;;0.95;0.50;;;;;;;8.66;nan;99908.19;10560221;28;20040;-79
2022/12/29 13:31:50;;;;;;;0.57;0.52;;;;;;;8.59;nan;99924.66;10605484;27;20048;-80
2022/12/29 13:36:56;;;;;;;2.08;0.40;;;;;;;8.52;nan;99943.69;10614629;28;20070;-81
2022/12/29 13:42:00;;;;;;;1.55;0.47;;;;;;;8.53;nan;99937.63;10615105;27;20019;-81
2022/12/29 13:47:15;;;;;;;1.20;0.47;;;;;;;8.46;nan;99952.31;10609677;28;20057;-82
2022/12/29 13:52:20;;;;;;;1.02;0.40;;;;;;;8.43;nan;99960.06;10609303;27;20101;-83
2022/12/29 13:57:34;;;;;;;0.40;0.30;;;;;;;8.47;nan;99961.91;10608394;27;20044;-81
2022/12/29 14:02:44;;;;;;;0.68;0.30;;;;;;;8.39;nan;99978.28;10613198;28;20036;-81
2022/12/29 14:07:48;;;;;;;0.75;0.38;;;;;;;8.20;nan;99987.59;10589646;27;20075;-84
2022/12/29 14:12:49;;;;;;;0.75;0.50;;;;;;;8.17;nan;99997.97;10577639;28;20044;-80
2022/12/29 14:18:15;;;;;;;0.10;0.10;;;;;;;7.98;nan;99992.50;10585834;27;20045;-82
2022/12/29 14:23:45;;;;;;;0.13;0.13;;;;;;;7.84;nan;100007.94;10574632;28;20047;-81
2022/12/29 14:28:48;;;;;;;0.10;0.10;;;;;;;7.77;nan;100021.72;10583408;28;20467;-81
2022/12/29 14:34:05;;;;;;;0.40;0.15;;;;;;;7.76;nan;100032.97;10582958;28;20282;-81
2022/12/29 14:39:52;;;;;;;0.75;0.40;;;;;;;7.83;nan;100034.84;10583396;28;20052;-85
2022/12/29 14:45:04;;;;;;;0.35;0.28;;;;;;;7.81;nan;100044.38;10581374;28;20051;-81
2022/12/29 14:50:23;;;;;;;0.43;0.38;;;;;;;7.84;nan;100041.81;10589088;28;20383;-81
2022/12/29 14:55:30;;;;;;;1.20;0.68;;;;;;;7.81;nan;100049.59;10601543;28;20050;-81
2022/12/29 15:00:34;;;;;;;0.95;0.60;;;;;;;7.76;nan;100053.81;10581765;28;20048;-82
2022/12/29 15:05:43;;;;;;;2.00;1.08;;;;;;;7.73;nan;100054.69;10572453;28;20042;-81
2022/12/29 15:10:53;;;;;;;2.13;1.10;;;;;;;7.69;nan;100058.06;10590696;28;20448;-80
2022/12/29 15:15:55;;;;;;;0.30;0.28;;;;;;;7.61;nan;100062.25;10609797;28;20027;-81
2022/12/29 15:21:00;;;;;;;3.65;0.82;;;;;;;7.61;nan;100055.34;10598008;28;20035;-80
2022/12/29 15:26:07;;;;;;;2.38;0.57;;;;;;;7.58;nan;100060.50;10589989;28;20047;-79
2022/12/29 15:31:18;;;;;;;1.55;0.82;;;;;;;7.56;nan;100072.59;10560543;28;20544;-79
2022/12/29 15:36:26;;;;;;;10.15;3.05;;;;;;;7.55;nan;100069.97;10550776;27;20043;-80
2022/12/29 15:41:32;;;;;;;2.83;1.17;;;;;;;7.53;nan;100082.97;10557376;27;20101;-79
2022/12/29 15:46:34;;;;;;;0.63;0.43;;;;;;;7.50;nan;100077.72;10583741;27;20151;-80
2022/12/29 15:51:39;;;;;;;0.55;0.40;;;;;;;7.52;nan;100081.25;10570268;27;20043;-81
2022/12/29 15:56:41;;;;;;;3.50;0.80;;;;;;;7.47;nan;100082.88;10582531;27;20048;-81
2022/12/29 16:01:43;;;;;;;0.43;0.43;;;;;;;7.38;nan;100083.56;10590825;27;20032;-81
2022/12/29 16:06:56;;;;;;;8.77;2.58;;;;;;;7.35;nan;100087.84;10541696;27;20131;-81
2022/12/29 16:12:02;;;;;;;5.35;1.58;;;;;;;7.31;nan;100097.34;10560316;28;20411;-80
2022/12/29 16:17:04;;;;;;;1.15;0.93;;;;;;;7.32;nan;100098.22;10582184;28;20043;-81
2022/12/29 16:22:14;;;;;;;6.00;1.63;;;;;;;7.24;nan;100095.47;10582975;28;20431;-80
2022/12/29 16:27:22;;;;;;;1.65;1.05;;;;;;;7.26;nan;100105.03;10563649;28;20044;-82
2022/12/29 16:32:29;;;;;;;1.80;1.67;;;;;;;7.29;nan;100105.97;10561440;28;20039;-81
2022/12/29 16:37:33;;;;;;;2.45;1.10;;;;;;;7.34;nan;100112.13;10560485;27;20043;-80
2022/12/29 16:42:46;;;;;;;2.88;1.08;;;;;;;7.38;nan;100120.03;10564135;28;20043;-80
2022/12/29 16:48:04;;;;;;;6.18;1.27;;;;;;;7.31;nan;100114.69;10553671;27;20040;-80
2022/12/29 16:53:18;;;;;;;1.33;0.63;;;;;;;7.25;nan;100116.31;10569531;28;20093;-80
2022/12/29 16:58:24;;;;;;;3.38;1.10;;;;;;;7.24;nan;100108.47;10543235;27;20556;-81
2022/12/29 17:03:34;;;;;;;1.15;0.77;;;;;;;7.26;nan;100110.25;10568381;27;20562;-80
2022/12/29 17:08:43;;;;;;;1.92;0.75;;;;;;;7.29;nan;100122.47;10535192;28;20047;-78
2022/12/29 17:13:44;;;;;;;2.75;1.17;;;;;;;7.29;nan;100125.06;10551830;28;20063;-79
2022/12/29 17:18:46;;;;;;;0.70;0.70;;;;;;;7.32;nan;100106.03;10557001;28;20043;-80
2022/12/29 17:23:48;;;;;;;2.78;1.15;;;;;;;7.42;nan;100115.78;10575489;28;20077;-82
2022/12/29 17:28:50;;;;;;;2.03;1.27;;;;;;;7.48;nan;100121.09;10579590;27;20039;-80
2022/12/29 17:33:55;;;;;;;2.20;1.42;;;;;;;7.50;nan;100123.72;10585607;28;20057;-80
2022/12/29 17:38:56;;;;;;;1.63;0.85;;;;;;;7.59;nan;100118.69;10571758;28;20041;-81
2022/12/29 17:43:59;;;;;;;1.20;0.85;;;;;;;7.64;nan;100119.66;10583833;28;20070;-81
2022/12/29 17:49:01;;;;;;;2.95;1.13;;;;;;;7.70;nan;100121.47;10574004;28;20146;-79
2022/12/29 17:54:03;;;;;;;1.52;0.88;;;;;;;7.73;nan;100129.34;10554815;28;20048;-79
2022/12/29 17:59:12;;;;;;;6.43;1.20;;;;;;;7.75;nan;100130.28;10557812;28;20048;-81
2022/12/29 18:04:18;;;;;;;0.28;0.28;;;;;;;7.76;nan;100132.00;10577910;28;20097;-79
2022/12/29 18:09:21;;;;;;;1.35;0.68;;;;;;;7.81;nan;100139.91;10577973;28;20077;-81
2022/12/29 18:14:24;;;;;;;1.13;0.57;;;;;;;7.78;nan;100148.56;10576028;28;20084;-82
2022/12/29 18:19:26;;;;;;;2.25;1.13;;;;;;;7.76;nan;100152.88;10568890;28;20051;-81
2022/12/29 18:24:33;;;;;;;0.65;0.60;;;;;;;7.76;nan;100147.66;10568488;28;20450;-80
2022/12/29 18:29:35;;;;;;;1.13;0.80;;;;;;;7.68;nan;100159.69;10572948;28;20058;-81
2022/12/29 18:34:36;;;;;;;1.10;0.63;;;;;;;7.65;nan;100164.84;10580592;28;20423;-81
2022/12/29 18:39:38;;;;;;;0.60;0.50;;;;;;;7.62;nan;100183.88;10549775;28;20213;-80
2022/12/29 18:44:40;;;;;;;0.45;0.40;;;;;;;7.57;nan;100204.63;10559295;28;20043;-81
2022/12/29 18:49:42;;;;;;;0.65;0.38;;;;;;;6.50;nan;100201.44;10554030;28;20047;-82
2022/12/29 18:54:44;;;;;;;1.65;0.85;;;;;;;5.93;nan;100196.47;10550927;28;20163;-81
2022/12/29 18:59:45;;;;;;;0.40;0.40;;;;;;;5.74;nan;100197.72;10550224;28;20082;-83
2022/12/29 19:04:47;;;;;;;0.20;0.20;;;;;;;5.64;nan;100202.66;10548302;28;20032;-83
2022/12/29 19:09:56;;;;;;;0.22;0.22;;;;;;;5.72;nan;100192.47;10553270;28;20039;-83
2022/12/29 19:14:57;;;;;;;0.30;0.30;;;;;;;5.86;nan;100221.44;10575156;28;20043;-84
2022/12/29 19:20:05;;;;;;;0.32;0.32;;;;;;;5.98;nan;100210.53;10545899;28;20126;-83
2022/12/29 19:25:07;;;;;;;2.10;1.13;;;;;;;6.11;nan;100204.81;10547701;28;20043;-83
2022/12/29 19:44:03;;;;;;;1.13;0.52;;;;;;;6.59;nan;100244.09;10349618;27;20039;-88
2022/12/29 19:49:06;;;;;;;0.38;0.28;;;;;;;6.21;nan;100226.69;10185283;28;20507;-84
2022/12/29 19:54:11;;;;;;;0.75;0.63;;;;;;;6.15;nan;100232.63;10555303;27;20394;-84
2022/12/29 19:59:16;;;;;;;0.75;0.40;;;;;;;6.05;nan;100251.44;10532413;27;20121;-86
2022/12/29 20:04:38;;;;;;;1.25;0.80;;;;;;;6.00;nan;100238.31;10371223;27;20253;-85
2022/12/29 20:10:30;;;;;;;7.18;1.13;;;;;;;6.04;nan;100246.19;10304999;27;20419;-87
2022/12/29 20:15:57;;;;;;;;;;;;;;;;;;;;;
2022/12/29 20:21:39;;;;;;;1.83;0.50;;;;;;;6.23;nan;100263.13;10375322;27;20786;-85
2022/12/29 20:26:45;;;;;;;6.85;1.23;;;;;;;6.28;nan;100279.75;10362748;27;20803;-85
2022/12/29 20:31:51;;;;;;;1.17;0.32;;;;;;;6.34;nan;100272.13;10285258;27;20052;-86
2022/12/29 20:37:38;;;;;;;0.40;0.40;;;;;;;6.41;nan;100280.94;10350633;27;20067;-87
2022/12/29 20:49:26;;;;;;;1.05;0.38;;;;;;;6.42;nan;100287.91;10324232;28;20077;-85
2022/12/29 20:54:28;;;;;;;1.35;0.80;;;;;;;6.31;nan;100295.44;10434464;27;20354;-85
2022/12/29 20:59:36;;;;;;;1.48;0.68;;;;;;;6.25;nan;100300.47;10414187;27;21010;-86
2022/12/29 21:04:38;;;;;;;4.10;1.38;;;;;;;6.25;nan;100308.28;10484968;27;20503;-86
2022/12/29 21:09:59;;;;;;;10.20;2.03;;;;;;;6.13;nan;100296.69;10575257;27;20040;-85
2022/12/29 21:15:01;;;;;;;1.75;0.93;;;;;;;6.11;nan;100297.47;10533273;27;20061;-84
2022/12/29 21:20:03;;;;;;;1.35;0.65;;;;;;;6.07;nan;100298.25;10574209;27;20051;-84
2022/12/29 21:25:05;;;;;;;1.08;0.52;;;;;;;6.07;nan;100301.72;10548174;27;20067;-83
2022/12/29 21:30:07;;;;;;;3.45;1.42;;;;;;;6.12;nan;100315.72;10564115;27;20059;-85
2022/12/29 21:35:09;;;;;;;1.10;0.68;;;;;;;6.22;nan;100331.59;10566402;27;20047;-85
2022/12/29 21:40:11;;;;;;;1.77;0.50;;;;;;;6.14;nan;100340.06;10553937;28;20296;-84
2022/12/29 21:45:24;;;;;;;2.15;1.08;;;;;;;6.07;nan;100338.13;10564718;27;20773;-85
2022/12/29 21:50:26;;;;;;;4.80;0.73;;;;;;;6.07;nan;100340.72;10556729;27;20084;-85
2022/12/29 21:55:28;;;;;;;0.10;0.10;;;;;;;6.09;nan;100343.38;10539200;27;20050;-84
2022/12/29 22:16:33;;;;;;;5.15;1.05;;;;;;;6.09;nan;100365.03;10435697;28;20099;-86
2022/12/29 22:21:34;;;;;;;0.82;0.38;;;;;;;6.08;nan;100367.59;10478465;28;20137;-83
2022/12/29 22:26:36;;;;;;;2.55;1.15;;;;;;;6.02;nan;100368.31;10478967;28;20306;-83
2022/12/29 22:31:38;;;;;;;1.10;0.75;;;;;;;6.08;nan;100381.47;10471476;28;20064;-84
2022/12/29 22:36:39;;;;;;;0.40;0.40;;;;;;;6.12;nan;100391.09;10404264;28;20064;-83
2022/12/29 22:41:41;;;;;;;0.40;0.40;;;;;;;6.19;nan;100389.59;10448276;28;20139;-84
2022/12/29 22:46:43;;;;;;;1.10;1.00;;;;;;;6.21;nan;100387.03;10468696;28;20050;-84
2022/12/29 22:51:44;;;;;;;2.20;0.65;;;;;;;6.16;nan;100374.78;10460682;28;20069;-84
2022/12/29 22:56:46;;;;;;;0.20;0.20;;;;;;;6.10;nan;100376.31;10478253;28;20040;-84
2022/12/29 23:01:48;;;;;;;1.02;0.52;;;;;;;6.05;nan;100390.88;10493443;28;20048;-83
2022/12/29 23:06:50;;;;;;;0.45;0.38;;;;;;;6.06;nan;100375.34;10458494;28;20045;-83
2022/12/29 23:11:52;;;;;;;1.90;1.63;;;;;;;6.10;nan;100391.94;10453482;28;20033;-83
2022/12/29 23:16:54;;;;;;;3.05;1.63;;;;;;;6.05;nan;100416.88;10442754;28;20330;-83
2022/12/29 23:21:55;;;;;;;0.45;0.30;;;;;;;6.01;nan;100429.78;10443048;28;20037;-83
2022/12/29 23:26:57;;;;;;;1.52;1.40;;;;;;;6.04;nan;100446.34;10467624;28;20048;-82
2022/12/29 23:31:58;;;;;;;0.38;0.38;;;;;;;6.21;nan;100439.03;10490687;28;20089;-83
2022/12/29 23:37:00;;;;;;;0.90;0.75;;;;;;;6.21;nan;100460.69;10540900;28;20090;-83
2022/12/29 23:42:02;;;;;;;2.13;1.17;;;;;;;6.25;nan;100472.09;10523086;28;20032;-83
2022/12/29 23:47:04;;;;;;;0.13;0.13;;;;;;;6.27;nan;100471.28;10541941;28;20653;-83
2022/12/29 23:52:05;;;;;;;1.05;0.60;;;;;;;6.30;nan;100486.97;10545330;28;20028;-84
2022/12/29 23:57:07;;;;;;;2.08;0.57;;;;;;;6.19;nan;100504.84;10534209;28;20181;-83
